sensor_id;sensor_type;location;lat;lon;timestamp;P1;durP1;ratioP1;P2;durP2;ratioP2
51872;SDS011;52863;52.504;13.480;2022-10-18T00:01:02;19.40;;;10.63;;
51872;SDS011;52863;52.504;13.480;2022-10-18T00:03:30;14.20;;;11.40;;
51872;SDS011;52863;52.504;13.480;2022-10-18T00:05:57;17.43;;;12.10;;
51872;SDS011;52863;52.504;13.480;2022-10-18T00:08:24;18.70;;;11.83;;
51872;SDS011;52863;52.504;13.480;2022-10-18T00:10:51;15.00;;;11.10;;
51872;SDS011;52863;52.504;13.480;2022-10-18T00:13:19;16.10;;;12.07;;
51872;SDS011;52863;52.504;13.480;2022-10-18T00:15:49;17.90;;;11.00;;
51872;SDS011;52863;52.504;13.480;2022-10-18T00:18:16;16.07;;;11.33;;
51872;SDS011;52863;52.504;13.480;2022-10-18T00:20:43;15.53;;;10.03;;
51872;SDS011;52863;52.504;13.480;2022-10-18T00:23:10;16.97;;;11.07;;
51872;SDS011;52863;52.504;13.480;2022-10-18T00:25:37;16.27;;;11.33;;
51872;SDS011;52863;52.504;13.480;2022-10-18T00:28:04;12.90;;;10.03;;
51872;SDS011;52863;52.504;13.480;2022-10-18T00:30:31;14.43;;;12.00;;
51872;SDS011;52863;52.504;13.480;2022-10-18T00:32:58;15.57;;;11.37;;
51872;SDS011;52863;52.504;13.480;2022-10-18T00:35:25;16.87;;;11.47;;
51872;SDS011;52863;52.504;13.480;2022-10-18T00:37:52;16.00;;;11.00;;
51872;SDS011;52863;52.504;13.480;2022-10-18T00:40:18;14.00;;;11.27;;
51872;SDS011;52863;52.504;13.480;2022-10-18T00:42:45;14.80;;;11.47;;
51872;SDS011;52863;52.504;13.480;2022-10-18T00:45:19;20.47;;;12.10;;
51872;SDS011;52863;52.504;13.480;2022-10-18T00:47:51;15.90;;;12.17;;
51872;SDS011;52863;52.504;13.480;2022-10-18T00:50:21;16.10;;;11.90;;
51872;SDS011;52863;52.504;13.480;2022-10-18T00:52:50;17.40;;;12.13;;
51872;SDS011;52863;52.504;13.480;2022-10-18T00:55:18;17.77;;;13.07;;
51872;SDS011;52863;52.504;13.480;2022-10-18T00:57:46;20.60;;;15.43;;
51872;SDS011;52863;52.504;13.480;2022-10-18T01:00:13;21.17;;;15.13;;
51872;SDS011;52863;52.504;13.480;2022-10-18T01:02:41;16.87;;;15.07;;
51872;SDS011;52863;52.504;13.480;2022-10-18T01:05:11;25.27;;;16.67;;
51872;SDS011;52863;52.504;13.480;2022-10-18T01:07:47;20.83;;;16.33;;
51872;SDS011;52863;52.504;13.480;2022-10-18T01:10:25;21.20;;;15.53;;
51872;SDS011;52863;52.504;13.480;2022-10-18T01:15:54;18.10;;;13.50;;
51872;SDS011;52863;52.504;13.480;2022-10-18T01:18:24;17.63;;;13.40;;
51872;SDS011;52863;52.504;13.480;2022-10-18T01:21:00;14.63;;;12.97;;
51872;SDS011;52863;52.504;13.480;2022-10-18T01:23:38;16.93;;;12.90;;
51872;SDS011;52863;52.504;13.480;2022-10-18T01:26:20;13.73;;;11.30;;
51872;SDS011;52863;52.504;13.480;2022-10-18T01:29:01;12.53;;;11.23;;
51872;SDS011;52863;52.504;13.480;2022-10-18T01:31:38;12.13;;;10.53;;
51872;SDS011;52863;52.504;13.480;2022-10-18T01:34:10;12.93;;;11.43;;
51872;SDS011;52863;52.504;13.480;2022-10-18T01:36:39;11.53;;;10.33;;
51872;SDS011;52863;52.504;13.480;2022-10-18T01:39:08;13.40;;;10.63;;
51872;SDS011;52863;52.504;13.480;2022-10-18T01:41:40;15.27;;;11.47;;
51872;SDS011;52863;52.504;13.480;2022-10-18T01:44:11;16.03;;;11.63;;
51872;SDS011;52863;52.504;13.480;2022-10-18T01:46:43;12.20;;;10.97;;
51872;SDS011;52863;52.504;13.480;2022-10-18T01:49:11;13.27;;;11.87;;
51872;SDS011;52863;52.504;13.480;2022-10-18T01:51:38;13.47;;;11.17;;
51872;SDS011;52863;52.504;13.480;2022-10-18T01:54:05;12.73;;;11.43;;
51872;SDS011;52863;52.504;13.480;2022-10-18T01:56:33;15.57;;;11.17;;
51872;SDS011;52863;52.504;13.480;2022-10-18T01:59:13;15.17;;;11.20;;
51872;SDS011;52863;52.504;13.480;2022-10-18T02:01:57;13.50;;;12.10;;
51872;SDS011;52863;52.504;13.480;2022-10-18T02:04:32;18.50;;;12.00;;
51872;SDS011;52863;52.504;13.480;2022-10-18T02:07:06;14.13;;;11.33;;
51872;SDS011;52863;52.504;13.480;2022-10-18T02:09:41;14.20;;;12.07;;
51872;SDS011;52863;52.504;13.480;2022-10-18T02:12:15;14.90;;;12.20;;
51872;SDS011;52863;52.504;13.480;2022-10-18T02:14:43;17.40;;;12.80;;
51872;SDS011;52863;52.504;13.480;2022-10-18T02:17:12;13.43;;;12.03;;
51872;SDS011;52863;52.504;13.480;2022-10-18T02:19:41;15.60;;;11.73;;
51872;SDS011;52863;52.504;13.480;2022-10-18T02:22:11;14.03;;;12.57;;
51872;SDS011;52863;52.504;13.480;2022-10-18T02:24:40;14.27;;;12.77;;
51872;SDS011;52863;52.504;13.480;2022-10-18T02:27:09;14.47;;;12.97;;
51872;SDS011;52863;52.504;13.480;2022-10-18T02:29:36;17.07;;;13.00;;
51872;SDS011;52863;52.504;13.480;2022-10-18T02:32:07;13.27;;;11.97;;
51872;SDS011;52863;52.504;13.480;2022-10-18T02:34:38;14.10;;;11.93;;
51872;SDS011;52863;52.504;13.480;2022-10-18T02:37:08;15.53;;;12.70;;
51872;SDS011;52863;52.504;13.480;2022-10-18T02:39:36;13.90;;;12.27;;
51872;SDS011;52863;52.504;13.480;2022-10-18T02:42:08;18.07;;;12.90;;
51872;SDS011;52863;52.504;13.480;2022-10-18T02:44:36;13.50;;;12.10;;
51872;SDS011;52863;52.504;13.480;2022-10-18T02:47:04;14.37;;;12.87;;
51872;SDS011;52863;52.504;13.480;2022-10-18T02:49:32;12.93;;;11.63;;
51872;SDS011;52863;52.504;13.480;2022-10-18T02:51:59;13.70;;;12.27;;
51872;SDS011;52863;52.504;13.480;2022-10-18T02:54:26;14.33;;;12.37;;
51872;SDS011;52863;52.504;13.480;2022-10-18T02:56:53;15.10;;;11.97;;
51872;SDS011;52863;52.504;13.480;2022-10-18T02:59:20;16.20;;;12.53;;
51872;SDS011;52863;52.504;13.480;2022-10-18T03:01:47;14.63;;;12.20;;
51872;SDS011;52863;52.504;13.480;2022-10-18T03:04:14;13.70;;;12.30;;
51872;SDS011;52863;52.504;13.480;2022-10-18T03:06:41;14.07;;;11.03;;
51872;SDS011;52863;52.504;13.480;2022-10-18T03:09:08;13.83;;;12.10;;
51872;SDS011;52863;52.504;13.480;2022-10-18T03:11:35;13.27;;;11.70;;
51872;SDS011;52863;52.504;13.480;2022-10-18T03:14:02;13.47;;;12.07;;
51872;SDS011;52863;52.504;13.480;2022-10-18T03:16:29;13.70;;;12.20;;
51872;SDS011;52863;52.504;13.480;2022-10-18T03:18:56;17.13;;;12.30;;
51872;SDS011;52863;52.504;13.480;2022-10-18T03:21:22;14.33;;;12.20;;
51872;SDS011;52863;52.504;13.480;2022-10-18T03:23:49;12.90;;;11.57;;
51872;SDS011;52863;52.504;13.480;2022-10-18T03:26:17;14.07;;;12.57;;
51872;SDS011;52863;52.504;13.480;2022-10-18T03:28:45;13.53;;;12.13;;
51872;SDS011;52863;52.504;13.480;2022-10-18T03:31:12;14.80;;;12.50;;
51872;SDS011;52863;52.504;13.480;2022-10-18T03:33:39;15.47;;;12.23;;
51872;SDS011;52863;52.504;13.480;2022-10-18T03:36:05;16.13;;;13.00;;
51872;SDS011;52863;52.504;13.480;2022-10-18T03:38:33;18.23;;;12.73;;
51872;SDS011;52863;52.504;13.480;2022-10-18T03:41:00;14.40;;;11.67;;
51872;SDS011;52863;52.504;13.480;2022-10-18T03:43:27;15.03;;;12.93;;
51872;SDS011;52863;52.504;13.480;2022-10-18T03:45:54;17.47;;;14.03;;
51872;SDS011;52863;52.504;13.480;2022-10-18T03:48:21;16.10;;;13.23;;
51872;SDS011;52863;52.504;13.480;2022-10-18T03:50:48;13.60;;;12.20;;
51872;SDS011;52863;52.504;13.480;2022-10-18T03:53:15;16.13;;;13.20;;
51872;SDS011;52863;52.504;13.480;2022-10-18T03:55:42;16.97;;;14.07;;
51872;SDS011;52863;52.504;13.480;2022-10-18T03:58:09;15.63;;;12.93;;
51872;SDS011;52863;52.504;13.480;2022-10-18T04:00:36;15.17;;;13.60;;
51872;SDS011;52863;52.504;13.480;2022-10-18T04:03:03;16.60;;;14.50;;
51872;SDS011;52863;52.504;13.480;2022-10-18T04:05:30;15.70;;;13.77;;
51872;SDS011;52863;52.504;13.480;2022-10-18T04:07:57;19.27;;;15.43;;
51872;SDS011;52863;52.504;13.480;2022-10-18T04:10:24;17.67;;;15.50;;
51872;SDS011;52863;52.504;13.480;2022-10-18T04:12:51;19.33;;;14.43;;
51872;SDS011;52863;52.504;13.480;2022-10-18T04:15:18;17.00;;;15.03;;
51872;SDS011;52863;52.504;13.480;2022-10-18T04:17:47;18.53;;;15.30;;
51872;SDS011;52863;52.504;13.480;2022-10-18T04:20:14;17.77;;;13.10;;
51872;SDS011;52863;52.504;13.480;2022-10-18T04:22:41;17.23;;;13.93;;
51872;SDS011;52863;52.504;13.480;2022-10-18T04:25:08;15.33;;;13.73;;
51872;SDS011;52863;52.504;13.480;2022-10-18T04:27:36;18.13;;;13.67;;
51872;SDS011;52863;52.504;13.480;2022-10-18T04:30:02;16.80;;;14.03;;
51872;SDS011;52863;52.504;13.480;2022-10-18T04:32:30;15.73;;;14.03;;
51872;SDS011;52863;52.504;13.480;2022-10-18T04:34:57;19.07;;;15.17;;
51872;SDS011;52863;52.504;13.480;2022-10-18T04:37:24;18.20;;;14.57;;
51872;SDS011;52863;52.504;13.480;2022-10-18T04:39:51;18.63;;;13.40;;
51872;SDS011;52863;52.504;13.480;2022-10-18T04:42:19;16.77;;;13.50;;
51872;SDS011;52863;52.504;13.480;2022-10-18T04:44:46;19.87;;;14.43;;
51872;SDS011;52863;52.504;13.480;2022-10-18T04:47:12;19.70;;;14.50;;
51872;SDS011;52863;52.504;13.480;2022-10-18T04:49:39;19.43;;;14.07;;
51872;SDS011;52863;52.504;13.480;2022-10-18T04:52:07;19.03;;;14.13;;
51872;SDS011;52863;52.504;13.480;2022-10-18T04:54:34;18.77;;;14.30;;
51872;SDS011;52863;52.504;13.480;2022-10-18T04:57:01;19.47;;;15.57;;
51872;SDS011;52863;52.504;13.480;2022-10-18T04:59:28;17.53;;;15.07;;
51872;SDS011;52863;52.504;13.480;2022-10-18T05:01:56;17.53;;;13.83;;
51872;SDS011;52863;52.504;13.480;2022-10-18T05:04:23;18.00;;;13.80;;
51872;SDS011;52863;52.504;13.480;2022-10-18T05:06:50;17.37;;;13.40;;
51872;SDS011;52863;52.504;13.480;2022-10-18T05:09:17;15.90;;;12.60;;
51872;SDS011;52863;52.504;13.480;2022-10-18T05:11:46;15.93;;;13.60;;
51872;SDS011;52863;52.504;13.480;2022-10-18T05:14:13;16.97;;;13.97;;
51872;SDS011;52863;52.504;13.480;2022-10-18T05:16:40;16.97;;;12.87;;
51872;SDS011;52863;52.504;13.480;2022-10-18T05:19:08;17.50;;;13.37;;
51872;SDS011;52863;52.504;13.480;2022-10-18T05:21:35;14.70;;;12.27;;
51872;SDS011;52863;52.504;13.480;2022-10-18T05:24:02;17.20;;;12.27;;
51872;SDS011;52863;52.504;13.480;2022-10-18T05:26:29;17.50;;;12.57;;
51872;SDS011;52863;52.504;13.480;2022-10-18T05:28:56;16.17;;;12.53;;
51872;SDS011;52863;52.504;13.480;2022-10-18T05:31:23;15.03;;;12.77;;
51872;SDS011;52863;52.504;13.480;2022-10-18T05:33:49;15.07;;;12.20;;
51872;SDS011;52863;52.504;13.480;2022-10-18T05:36:16;17.30;;;12.27;;
51872;SDS011;52863;52.504;13.480;2022-10-18T05:38:43;14.27;;;12.43;;
51872;SDS011;52863;52.504;13.480;2022-10-18T05:41:12;14.63;;;12.47;;
51872;SDS011;52863;52.504;13.480;2022-10-18T05:43:40;16.10;;;13.47;;
51872;SDS011;52863;52.504;13.480;2022-10-18T05:46:06;19.20;;;13.40;;
51872;SDS011;52863;52.504;13.480;2022-10-18T05:48:40;18.73;;;13.43;;
51872;SDS011;52863;52.504;13.480;2022-10-18T05:51:07;19.73;;;14.43;;
51872;SDS011;52863;52.504;13.480;2022-10-18T05:53:33;22.63;;;14.40;;
51872;SDS011;52863;52.504;13.480;2022-10-18T05:56:03;15.53;;;13.63;;
51872;SDS011;52863;52.504;13.480;2022-10-18T05:58:30;17.50;;;14.17;;
51872;SDS011;52863;52.504;13.480;2022-10-18T06:00:58;19.67;;;14.80;;
51872;SDS011;52863;52.504;13.480;2022-10-18T06:03:25;24.27;;;16.30;;
51872;SDS011;52863;52.504;13.480;2022-10-18T06:05:52;20.73;;;15.27;;
51872;SDS011;52863;52.504;13.480;2022-10-18T06:08:19;19.00;;;15.07;;
51872;SDS011;52863;52.504;13.480;2022-10-18T06:10:46;19.17;;;15.23;;
51872;SDS011;52863;52.504;13.480;2022-10-18T06:13:13;23.13;;;14.97;;
51872;SDS011;52863;52.504;13.480;2022-10-18T06:15:40;18.10;;;14.30;;
51872;SDS011;52863;52.504;13.480;2022-10-18T06:18:07;19.27;;;14.97;;
51872;SDS011;52863;52.504;13.480;2022-10-18T06:20:34;18.63;;;14.37;;
51872;SDS011;52863;52.504;13.480;2022-10-18T06:23:01;18.90;;;14.77;;
51872;SDS011;52863;52.504;13.480;2022-10-18T06:25:27;19.50;;;15.10;;
51872;SDS011;52863;52.504;13.480;2022-10-18T06:27:54;22.13;;;15.27;;
51872;SDS011;52863;52.504;13.480;2022-10-18T06:30:21;19.87;;;15.13;;
51872;SDS011;52863;52.504;13.480;2022-10-18T06:32:48;18.40;;;14.37;;
51872;SDS011;52863;52.504;13.480;2022-10-18T06:35:16;20.33;;;15.63;;
51872;SDS011;52863;52.504;13.480;2022-10-18T06:37:42;25.27;;;15.30;;
51872;SDS011;52863;52.504;13.480;2022-10-18T06:40:10;24.03;;;14.80;;
51872;SDS011;52863;52.504;13.480;2022-10-18T06:42:37;24.60;;;14.63;;
51872;SDS011;52863;52.504;13.480;2022-10-18T06:45:05;20.63;;;15.47;;
51872;SDS011;52863;52.504;13.480;2022-10-18T06:47:32;19.80;;;14.87;;
51872;SDS011;52863;52.504;13.480;2022-10-18T06:49:59;20.20;;;15.63;;
51872;SDS011;52863;52.504;13.480;2022-10-18T06:52:27;23.93;;;16.90;;
51872;SDS011;52863;52.504;13.480;2022-10-18T06:54:54;22.10;;;16.30;;
51872;SDS011;52863;52.504;13.480;2022-10-18T06:57:21;23.87;;;16.40;;
51872;SDS011;52863;52.504;13.480;2022-10-18T06:59:48;20.50;;;15.43;;
51872;SDS011;52863;52.504;13.480;2022-10-18T07:02:15;21.80;;;16.20;;
51872;SDS011;52863;52.504;13.480;2022-10-18T07:04:42;23.40;;;16.10;;
51872;SDS011;52863;52.504;13.480;2022-10-18T07:07:09;21.77;;;14.83;;
51872;SDS011;52863;52.504;13.480;2022-10-18T07:09:37;19.03;;;15.87;;
51872;SDS011;52863;52.504;13.480;2022-10-18T07:12:03;18.73;;;13.67;;
51872;SDS011;52863;52.504;13.480;2022-10-18T07:14:30;19.43;;;16.20;;
51872;SDS011;52863;52.504;13.480;2022-10-18T07:16:58;20.77;;;15.57;;
51872;SDS011;52863;52.504;13.480;2022-10-18T07:19:25;22.30;;;15.10;;
51872;SDS011;52863;52.504;13.480;2022-10-18T07:21:51;20.33;;;15.47;;
51872;SDS011;52863;52.504;13.480;2022-10-18T07:24:18;22.07;;;14.57;;
51872;SDS011;52863;52.504;13.480;2022-10-18T07:26:46;21.27;;;15.03;;
51872;SDS011;52863;52.504;13.480;2022-10-18T07:29:13;19.50;;;15.03;;
51872;SDS011;52863;52.504;13.480;2022-10-18T07:31:40;23.43;;;15.40;;
51872;SDS011;52863;52.504;13.480;2022-10-18T07:34:07;18.80;;;15.60;;
51872;SDS011;52863;52.504;13.480;2022-10-18T07:36:37;21.40;;;16.80;;
51872;SDS011;52863;52.504;13.480;2022-10-18T07:39:04;21.77;;;15.40;;
51872;SDS011;52863;52.504;13.480;2022-10-18T07:41:31;19.67;;;15.37;;
51872;SDS011;52863;52.504;13.480;2022-10-18T07:43:59;15.87;;;14.10;;
51872;SDS011;52863;52.504;13.480;2022-10-18T07:46:26;21.10;;;13.83;;
51872;SDS011;52863;52.504;13.480;2022-10-18T07:48:53;15.37;;;13.50;;
51872;SDS011;52863;52.504;13.480;2022-10-18T07:51:20;18.67;;;12.13;;
51872;SDS011;52863;52.504;13.480;2022-10-18T07:53:47;18.13;;;10.97;;
51872;SDS011;52863;52.504;13.480;2022-10-18T07:56:15;15.97;;;12.13;;
51872;SDS011;52863;52.504;13.480;2022-10-18T07:58:45;15.03;;;12.70;;
51872;SDS011;52863;52.504;13.480;2022-10-18T08:01:13;17.17;;;13.50;;
51872;SDS011;52863;52.504;13.480;2022-10-18T08:03:40;16.40;;;12.57;;
51872;SDS011;52863;52.504;13.480;2022-10-18T08:06:08;16.90;;;13.00;;
51872;SDS011;52863;52.504;13.480;2022-10-18T08:08:36;17.40;;;14.33;;
51872;SDS011;52863;52.504;13.480;2022-10-18T08:11:04;16.63;;;13.13;;
51872;SDS011;52863;52.504;13.480;2022-10-18T08:13:32;17.47;;;13.03;;
51872;SDS011;52863;52.504;13.480;2022-10-18T08:15:59;17.50;;;13.17;;
51872;SDS011;52863;52.504;13.480;2022-10-18T08:18:27;15.63;;;12.30;;
51872;SDS011;52863;52.504;13.480;2022-10-18T08:20:54;17.37;;;12.93;;
51872;SDS011;52863;52.504;13.480;2022-10-18T08:23:21;18.27;;;12.33;;
51872;SDS011;52863;52.504;13.480;2022-10-18T08:25:48;16.60;;;13.07;;
51872;SDS011;52863;52.504;13.480;2022-10-18T08:28:15;17.40;;;13.10;;
51872;SDS011;52863;52.504;13.480;2022-10-18T08:30:42;17.37;;;12.47;;
51872;SDS011;52863;52.504;13.480;2022-10-18T08:33:09;30.53;;;18.80;;
51872;SDS011;52863;52.504;13.480;2022-10-18T08:35:37;19.83;;;13.40;;
51872;SDS011;52863;52.504;13.480;2022-10-18T08:38:03;18.43;;;12.60;;
51872;SDS011;52863;52.504;13.480;2022-10-18T08:40:30;16.00;;;12.60;;
51872;SDS011;52863;52.504;13.480;2022-10-18T08:43:01;17.17;;;11.67;;
51872;SDS011;52863;52.504;13.480;2022-10-18T08:45:33;15.67;;;11.47;;
51872;SDS011;52863;52.504;13.480;2022-10-18T08:48:12;14.63;;;11.10;;
51872;SDS011;52863;52.504;13.480;2022-10-18T08:50:43;15.33;;;11.30;;
51872;SDS011;52863;52.504;13.480;2022-10-18T08:53:12;17.67;;;11.27;;
51872;SDS011;52863;52.504;13.480;2022-10-18T08:55:45;13.97;;;10.53;;
51872;SDS011;52863;52.504;13.480;2022-10-18T08:58:18;15.87;;;9.80;;
51872;SDS011;52863;52.504;13.480;2022-10-18T09:00:48;16.27;;;10.87;;
51872;SDS011;52863;52.504;13.480;2022-10-18T09:03:22;14.60;;;10.40;;
51872;SDS011;52863;52.504;13.480;2022-10-18T09:06:01;16.00;;;11.47;;
51872;SDS011;52863;52.504;13.480;2022-10-18T09:08:39;17.37;;;10.93;;
51872;SDS011;52863;52.504;13.480;2022-10-18T09:11:18;13.47;;;10.27;;
51872;SDS011;52863;52.504;13.480;2022-10-18T09:14:02;13.43;;;10.07;;
51872;SDS011;52863;52.504;13.480;2022-10-18T09:16:57;14.40;;;10.10;;
51872;SDS011;52863;52.504;13.480;2022-10-18T09:19:33;13.47;;;9.53;;
51872;SDS011;52863;52.504;13.480;2022-10-18T09:22:20;15.93;;;9.67;;
51872;SDS011;52863;52.504;13.480;2022-10-18T09:25:08;15.10;;;9.43;;
51872;SDS011;52863;52.504;13.480;2022-10-18T09:27:40;15.70;;;9.33;;
51872;SDS011;52863;52.504;13.480;2022-10-18T09:30:18;15.27;;;9.50;;
51872;SDS011;52863;52.504;13.480;2022-10-18T09:32:53;12.27;;;10.07;;
51872;SDS011;52863;52.504;13.480;2022-10-18T09:35:26;52.47;;;36.37;;
51872;SDS011;52863;52.504;13.480;2022-10-18T09:37:58;21.30;;;14.60;;
51872;SDS011;52863;52.504;13.480;2022-10-18T09:40:28;13.53;;;10.80;;
51872;SDS011;52863;52.504;13.480;2022-10-18T09:42:58;15.23;;;10.57;;
51872;SDS011;52863;52.504;13.480;2022-10-18T09:45:30;14.77;;;10.20;;
51872;SDS011;52863;52.504;13.480;2022-10-18T09:48:02;13.27;;;10.63;;
51872;SDS011;52863;52.504;13.480;2022-10-18T09:50:34;12.73;;;10.50;;
51872;SDS011;52863;52.504;13.480;2022-10-18T09:53:07;14.50;;;10.60;;
51872;SDS011;52863;52.504;13.480;2022-10-18T09:55:42;14.73;;;10.30;;
51872;SDS011;52863;52.504;13.480;2022-10-18T09:58:21;12.87;;;10.80;;
51872;SDS011;52863;52.504;13.480;2022-10-18T10:00:51;14.47;;;12.03;;
51872;SDS011;52863;52.504;13.480;2022-10-18T10:03:19;15.70;;;11.00;;
51872;SDS011;52863;52.504;13.480;2022-10-18T10:05:46;13.20;;;10.23;;
51872;SDS011;52863;52.504;13.480;2022-10-18T10:08:30;16.23;;;11.27;;
51872;SDS011;52863;52.504;13.480;2022-10-18T10:10:59;16.93;;;10.97;;
51872;SDS011;52863;52.504;13.480;2022-10-18T10:13:26;12.13;;;10.33;;
51872;SDS011;52863;52.504;13.480;2022-10-18T10:15:53;14.10;;;9.90;;
51872;SDS011;52863;52.504;13.480;2022-10-18T10:18:22;13.70;;;10.53;;
51872;SDS011;52863;52.504;13.480;2022-10-18T10:20:51;15.50;;;10.67;;
51872;SDS011;52863;52.504;13.480;2022-10-18T10:23:20;16.60;;;12.83;;
51872;SDS011;52863;52.504;13.480;2022-10-18T10:25:51;17.30;;;10.70;;
51872;SDS011;52863;52.504;13.480;2022-10-18T10:28:21;16.07;;;10.97;;
51872;SDS011;52863;52.504;13.480;2022-10-18T10:30:50;14.60;;;11.20;;
51872;SDS011;52863;52.504;13.480;2022-10-18T10:33:29;18.67;;;11.43;;
51872;SDS011;52863;52.504;13.480;2022-10-18T10:35:59;17.83;;;11.17;;
51872;SDS011;52863;52.504;13.480;2022-10-18T10:38:27;15.20;;;10.70;;
51872;SDS011;52863;52.504;13.480;2022-10-18T10:40:56;15.97;;;11.57;;
51872;SDS011;52863;52.504;13.480;2022-10-18T10:43:25;14.77;;;11.20;;
51872;SDS011;52863;52.504;13.480;2022-10-18T10:46:10;15.73;;;10.07;;
51872;SDS011;52863;52.504;13.480;2022-10-18T10:48:46;13.93;;;9.90;;
51872;SDS011;52863;52.504;13.480;2022-10-18T10:54:39;13.47;;;11.23;;
51872;SDS011;52863;52.504;13.480;2022-10-18T10:57:18;16.77;;;11.10;;
51872;SDS011;52863;52.504;13.480;2022-10-18T10:59:47;15.83;;;11.20;;
51872;SDS011;52863;52.504;13.480;2022-10-18T11:02:20;12.50;;;11.00;;
51872;SDS011;52863;52.504;13.480;2022-10-18T11:04:48;14.23;;;11.40;;
51872;SDS011;52863;52.504;13.480;2022-10-18T11:07:18;17.03;;;11.53;;
51872;SDS011;52863;52.504;13.480;2022-10-18T11:09:52;16.40;;;11.73;;
51872;SDS011;52863;52.504;13.480;2022-10-18T11:12:27;16.20;;;11.60;;
51872;SDS011;52863;52.504;13.480;2022-10-18T11:15:02;13.90;;;11.70;;
51872;SDS011;52863;52.504;13.480;2022-10-18T11:17:41;17.27;;;11.70;;
51872;SDS011;52863;52.504;13.480;2022-10-18T11:20:15;14.60;;;11.63;;
51872;SDS011;52863;52.504;13.480;2022-10-18T11:22:58;15.50;;;11.53;;
51872;SDS011;52863;52.504;13.480;2022-10-18T11:25:33;14.97;;;11.37;;
51872;SDS011;52863;52.504;13.480;2022-10-18T11:28:13;16.10;;;11.93;;
51872;SDS011;52863;52.504;13.480;2022-10-18T11:30:52;15.13;;;11.40;;
51872;SDS011;52863;52.504;13.480;2022-10-18T11:33:40;12.60;;;11.30;;
51872;SDS011;52863;52.504;13.480;2022-10-18T11:36:36;14.13;;;11.67;;
51872;SDS011;52863;52.504;13.480;2022-10-18T11:39:29;14.10;;;11.87;;
51872;SDS011;52863;52.504;13.480;2022-10-18T11:42:07;15.53;;;11.47;;
51872;SDS011;52863;52.504;13.480;2022-10-18T11:44:44;16.33;;;12.30;;
51872;SDS011;52863;52.504;13.480;2022-10-18T11:47:17;14.53;;;11.73;;
51872;SDS011;52863;52.504;13.480;2022-10-18T11:49:57;16.20;;;11.43;;
51872;SDS011;52863;52.504;13.480;2022-10-18T11:52:34;14.63;;;12.33;;
51872;SDS011;52863;52.504;13.480;2022-10-18T11:55:35;15.20;;;12.20;;
51872;SDS011;52863;52.504;13.480;2022-10-18T11:58:35;15.33;;;11.50;;
51872;SDS011;52863;52.504;13.480;2022-10-18T12:01:13;15.73;;;12.30;;
51872;SDS011;52863;52.504;13.480;2022-10-18T12:04:47;13.87;;;11.33;;
51872;SDS011;52863;52.504;13.480;2022-10-18T12:07:38;16.77;;;12.67;;
51872;SDS011;52863;52.504;13.480;2022-10-18T12:10:57;17.37;;;13.27;;
51872;SDS011;52863;52.504;13.480;2022-10-18T12:14:13;14.27;;;12.20;;
51872;SDS011;52863;52.504;13.480;2022-10-18T12:16:45;16.67;;;13.40;;
51872;SDS011;52863;52.504;13.480;2022-10-18T12:19:18;16.70;;;12.17;;
51872;SDS011;52863;52.504;13.480;2022-10-18T12:21:52;13.87;;;12.30;;
51872;SDS011;52863;52.504;13.480;2022-10-18T12:24:21;16.10;;;12.60;;
51872;SDS011;52863;52.504;13.480;2022-10-18T12:26:56;15.83;;;11.83;;
51872;SDS011;52863;52.504;13.480;2022-10-18T12:29:25;13.97;;;11.50;;
51872;SDS011;52863;52.504;13.480;2022-10-18T12:31:56;14.30;;;11.30;;
51872;SDS011;52863;52.504;13.480;2022-10-18T12:34:29;13.90;;;11.10;;
51872;SDS011;52863;52.504;13.480;2022-10-18T12:37:08;12.93;;;10.90;;
51872;SDS011;52863;52.504;13.480;2022-10-18T12:39:50;13.10;;;11.50;;
51872;SDS011;52863;52.504;13.480;2022-10-18T12:42:39;17.10;;;10.77;;
51872;SDS011;52863;52.504;13.480;2022-10-18T12:45:16;12.43;;;11.13;;
51872;SDS011;52863;52.504;13.480;2022-10-18T12:47:51;10.90;;;9.70;;
51872;SDS011;52863;52.504;13.480;2022-10-18T12:50:28;13.30;;;9.63;;
51872;SDS011;52863;52.504;13.480;2022-10-18T12:53:05;10.70;;;9.70;;
51872;SDS011;52863;52.504;13.480;2022-10-18T12:55:51;12.13;;;9.83;;
51872;SDS011;52863;52.504;13.480;2022-10-18T12:58:29;14.07;;;10.63;;
51872;SDS011;52863;52.504;13.480;2022-10-18T13:01:00;13.67;;;11.23;;
51872;SDS011;52863;52.504;13.480;2022-10-18T13:06:26;12.13;;;10.17;;
51872;SDS011;52863;52.504;13.480;2022-10-18T13:09:33;10.80;;;9.80;;
51872;SDS011;52863;52.504;13.480;2022-10-18T13:12:33;10.77;;;9.67;;
51872;SDS011;52863;52.504;13.480;2022-10-18T13:19:16;11.50;;;9.50;;
51872;SDS011;52863;52.504;13.480;2022-10-18T13:21:52;12.00;;;10.70;;
51872;SDS011;52863;52.504;13.480;2022-10-18T13:24:33;11.07;;;9.63;;
51872;SDS011;52863;52.504;13.480;2022-10-18T13:27:17;12.17;;;10.63;;
51872;SDS011;52863;52.504;13.480;2022-10-18T13:30:15;12.57;;;9.67;;
51872;SDS011;52863;52.504;13.480;2022-10-18T13:33:18;11.27;;;10.17;;
51872;SDS011;52863;52.504;13.480;2022-10-18T13:35:54;12.23;;;10.37;;
51872;SDS011;52863;52.504;13.480;2022-10-18T13:41:10;11.80;;;10.30;;
51872;SDS011;52863;52.504;13.480;2022-10-18T13:53:01;12.77;;;10.20;;
51872;SDS011;52863;52.504;13.480;2022-10-18T13:56:02;11.00;;;9.80;;
51872;SDS011;52863;52.504;13.480;2022-10-18T13:59:05;10.47;;;9.33;;
51872;SDS011;52863;52.504;13.480;2022-10-18T14:01:48;11.23;;;8.40;;
51872;SDS011;52863;52.504;13.480;2022-10-18T14:04:41;9.27;;;8.27;;
51872;SDS011;52863;52.504;13.480;2022-10-18T14:07:40;10.43;;;8.97;;
51872;SDS011;52863;52.504;13.480;2022-10-18T14:10:12;10.27;;;8.57;;
51872;SDS011;52863;52.504;13.480;2022-10-18T14:13:03;9.10;;;7.97;;
51872;SDS011;52863;52.504;13.480;2022-10-18T14:15:31;8.93;;;8.03;;
51872;SDS011;52863;52.504;13.480;2022-10-18T14:18:04;10.90;;;8.20;;
51872;SDS011;52863;52.504;13.480;2022-10-18T14:20:38;11.47;;;8.33;;
51872;SDS011;52863;52.504;13.480;2022-10-18T14:23:28;11.00;;;8.17;;
51872;SDS011;52863;52.504;13.480;2022-10-18T14:26:05;8.77;;;7.87;;
51872;SDS011;52863;52.504;13.480;2022-10-18T14:28:32;15.90;;;8.20;;
51872;SDS011;52863;52.504;13.480;2022-10-18T14:31:19;10.73;;;8.50;;
51872;SDS011;52863;52.504;13.480;2022-10-18T14:33:46;10.43;;;8.63;;
51872;SDS011;52863;52.504;13.480;2022-10-18T14:36:24;14.30;;;9.67;;
51872;SDS011;52863;52.504;13.480;2022-10-18T14:38:52;10.70;;;9.33;;
51872;SDS011;52863;52.504;13.480;2022-10-18T14:41:22;13.37;;;9.70;;
51872;SDS011;52863;52.504;13.480;2022-10-18T14:43:51;12.83;;;9.20;;
51872;SDS011;52863;52.504;13.480;2022-10-18T14:46:40;13.00;;;9.50;;
51872;SDS011;52863;52.504;13.480;2022-10-18T14:49:08;14.07;;;9.00;;
51872;SDS011;52863;52.504;13.480;2022-10-18T14:51:37;13.07;;;9.67;;
51872;SDS011;52863;52.504;13.480;2022-10-18T14:54:05;16.03;;;10.37;;
51872;SDS011;52863;52.504;13.480;2022-10-18T14:56:37;14.17;;;10.57;;
51872;SDS011;52863;52.504;13.480;2022-10-18T14:59:09;13.20;;;11.00;;
51872;SDS011;52863;52.504;13.480;2022-10-18T15:01:49;14.87;;;11.33;;
51872;SDS011;52863;52.504;13.480;2022-10-18T15:04:18;13.20;;;11.00;;